sensor_id;sensor_type;location;lat;lon;timestamp;temperature;humidity
14016;DHT22;7083;48.854;9.158;2023-10-31T00:01:20;10.90;99.90
14016;DHT22;7083;48.854;9.158;2023-10-31T00:03:48;10.90;99.90
14016;DHT22;7083;48.854;9.158;2023-10-31T00:06:15;10.90;99.90
14016;DHT22;7083;48.854;9.158;2023-10-31T00:08:42;10.80;99.90
14016;DHT22;7083;48.854;9.158;2023-10-31T00:11:08;10.90;99.90
14016;DHT22;7083;48.854;9.158;2023-10-31T00:13:35;10.90;99.90
14016;DHT22;7083;48.854;9.158;2023-10-31T00:16:03;10.90;99.90
14016;DHT22;7083;48.854;9.158;2023-10-31T00:18:29;10.90;99.90
14016;DHT22;7083;48.854;9.158;2023-10-31T00:20:57;10.90;99.90
14016;DHT22;7083;48.854;9.158;2023-10-31T00:23:24;11.00;99.90
14016;DHT22;7083;48.854;9.158;2023-10-31T00:25:51;10.90;99.90
14016;DHT22;7083;48.854;9.158;2023-10-31T00:28:17;10.90;99.90
14016;DHT22;7083;48.854;9.158;2023-10-31T00:30:44;10.90;99.90
14016;DHT22;7083;48.854;9.158;2023-10-31T00:33:11;10.90;99.90
14016;DHT22;7083;48.854;9.158;2023-10-31T00:35:37;10.90;99.90
14016;DHT22;7083;48.854;9.158;2023-10-31T00:38:05;10.90;99.90
14016;DHT22;7083;48.854;9.158;2023-10-31T00:40:32;10.90;99.90
14016;DHT22;7083;48.854;9.158;2023-10-31T00:42:59;10.80;99.90
14016;DHT22;7083;48.854;9.158;2023-10-31T00:45:26;10.90;99.90
14016;DHT22;7083;48.854;9.158;2023-10-31T00:47:52;10.80;99.90
14016;DHT22;7083;48.854;9.158;2023-10-31T00:50:19;10.80;99.90
14016;DHT22;7083;48.854;9.158;2023-10-31T00:52:46;10.80;99.90
14016;DHT22;7083;48.854;9.158;2023-10-31T00:55:14;10.80;99.90
14016;DHT22;7083;48.854;9.158;2023-10-31T00:57:40;10.70;99.90
14016;DHT22;7083;48.854;9.158;2023-10-31T01:00:08;10.70;99.90
14016;DHT22;7083;48.854;9.158;2023-10-31T01:02:35;10.70;99.90
14016;DHT22;7083;48.854;9.158;2023-10-31T01:05:02;10.50;99.90
14016;DHT22;7083;48.854;9.158;2023-10-31T01:07:29;10.50;99.90
14016;DHT22;7083;48.854;9.158;2023-10-31T01:09:56;10.40;99.90
14016;DHT22;7083;48.854;9.158;2023-10-31T01:12:24;10.30;99.90
14016;DHT22;7083;48.854;9.158;2023-10-31T01:14:53;10.20;99.90
14016;DHT22;7083;48.854;9.158;2023-10-31T01:17:19;10.00;99.90
14016;DHT22;7083;48.854;9.158;2023-10-31T01:19:46;9.90;99.90
14016;DHT22;7083;48.854;9.158;2023-10-31T01:22:13;9.90;99.90
14016;DHT22;7083;48.854;9.158;2023-10-31T01:24:40;9.70;99.90
14016;DHT22;7083;48.854;9.158;2023-10-31T01:27:06;9.60;99.90
14016;DHT22;7083;48.854;9.158;2023-10-31T01:29:34;9.50;99.90
14016;DHT22;7083;48.854;9.158;2023-10-31T01:32:01;9.40;99.90
14016;DHT22;7083;48.854;9.158;2023-10-31T01:34:28;9.20;99.90
14016;DHT22;7083;48.854;9.158;2023-10-31T01:36:54;9.20;99.90
14016;DHT22;7083;48.854;9.158;2023-10-31T01:39:21;9.10;99.90
14016;DHT22;7083;48.854;9.158;2023-10-31T01:41:48;9.00;99.90
14016;DHT22;7083;48.854;9.158;2023-10-31T01:44:15;9.00;99.90
14016;DHT22;7083;48.854;9.158;2023-10-31T01:46:43;9.00;99.90
14016;DHT22;7083;48.854;9.158;2023-10-31T01:49:09;8.90;99.90
14016;DHT22;7083;48.854;9.158;2023-10-31T01:51:36;8.90;99.90
14016;DHT22;7083;48.854;9.158;2023-10-31T01:54:04;8.90;99.90
14016;DHT22;7083;48.854;9.158;2023-10-31T01:56:31;8.90;99.90
14016;DHT22;7083;48.854;9.158;2023-10-31T01:58:58;9.00;99.90
14016;DHT22;7083;48.854;9.158;2023-10-31T02:01:25;9.00;99.90
14016;DHT22;7083;48.854;9.158;2023-10-31T02:03:53;9.10;99.90
14016;DHT22;7083;48.854;9.158;2023-10-31T02:06:20;9.10;99.90
14016;DHT22;7083;48.854;9.158;2023-10-31T02:08:47;9.10;99.90
14016;DHT22;7083;48.854;9.158;2023-10-31T02:11:14;9.20;99.90
14016;DHT22;7083;48.854;9.158;2023-10-31T02:13:41;9.20;99.90
14016;DHT22;7083;48.854;9.158;2023-10-31T02:16:07;9.30;99.90
14016;DHT22;7083;48.854;9.158;2023-10-31T02:18:34;9.20;99.90
14016;DHT22;7083;48.854;9.158;2023-10-31T02:21:03;9.20;99.90
14016;DHT22;7083;48.854;9.158;2023-10-31T02:23:31;9.30;99.90
14016;DHT22;7083;48.854;9.158;2023-10-31T02:25:57;9.30;99.90
14016;DHT22;7083;48.854;9.158;2023-10-31T02:28:24;9.30;99.90
14016;DHT22;7083;48.854;9.158;2023-10-31T02:30:53;9.30;99.90
14016;DHT22;7083;48.854;9.158;2023-10-31T02:33:19;9.30;99.90
14016;DHT22;7083;48.854;9.158;2023-10-31T02:35:46;9.20;99.90
14016;DHT22;7083;48.854;9.158;2023-10-31T02:38:13;9.20;99.90
14016;DHT22;7083;48.854;9.158;2023-10-31T02:40:41;9.20;99.90
14016;DHT22;7083;48.854;9.158;2023-10-31T02:43:07;9.20;99.90
14016;DHT22;7083;48.854;9.158;2023-10-31T02:45:34;9.20;99.90
14016;DHT22;7083;48.854;9.158;2023-10-31T02:48:01;9.20;99.90
14016;DHT22;7083;48.854;9.158;2023-10-31T02:50:27;9.10;99.90
14016;DHT22;7083;48.854;9.158;2023-10-31T02:52:54;9.10;99.90
14016;DHT22;7083;48.854;9.158;2023-10-31T02:55:21;9.10;99.90
14016;DHT22;7083;48.854;9.158;2023-10-31T02:57:49;9.00;99.90
14016;DHT22;7083;48.854;9.158;2023-10-31T03:00:16;9.00;99.90
14016;DHT22;7083;48.854;9.158;2023-10-31T03:02:43;9.00;99.90
14016;DHT22;7083;48.854;9.158;2023-10-31T03:05:09;8.90;99.90
14016;DHT22;7083;48.854;9.158;2023-10-31T03:07:36;8.90;99.90
14016;DHT22;7083;48.854;9.158;2023-10-31T03:10:03;8.90;99.90
14016;DHT22;7083;48.854;9.158;2023-10-31T03:12:30;8.90;99.90
14016;DHT22;7083;48.854;9.158;2023-10-31T03:14:58;8.90;99.90
14016;DHT22;7083;48.854;9.158;2023-10-31T03:17:25;8.90;99.90
14016;DHT22;7083;48.854;9.158;2023-10-31T03:19:53;8.80;99.90
14016;DHT22;7083;48.854;9.158;2023-10-31T03:22:20;8.80;99.90
14016;DHT22;7083;48.854;9.158;2023-10-31T03:24:46;8.80;99.90
14016;DHT22;7083;48.854;9.158;2023-10-31T03:27:13;8.70;99.90
14016;DHT22;7083;48.854;9.158;2023-10-31T03:29:40;8.70;99.90
14016;DHT22;7083;48.854;9.158;2023-10-31T03:32:08;8.70;99.90
14016;DHT22;7083;48.854;9.158;2023-10-31T03:34:35;8.70;99.90
14016;DHT22;7083;48.854;9.158;2023-10-31T03:37:02;8.60;99.90
14016;DHT22;7083;48.854;9.158;2023-10-31T03:39:29;8.80;99.90
14016;DHT22;7083;48.854;9.158;2023-10-31T03:41:56;8.80;99.90
14016;DHT22;7083;48.854;9.158;2023-10-31T03:44:22;8.80;99.90
14016;DHT22;7083;48.854;9.158;2023-10-31T03:46:49;8.90;99.90
14016;DHT22;7083;48.854;9.158;2023-10-31T03:49:17;8.90;99.90
14016;DHT22;7083;48.854;9.158;2023-10-31T03:51:44;8.90;99.90
14016;DHT22;7083;48.854;9.158;2023-10-31T03:54:11;9.00;99.90
14016;DHT22;7083;48.854;9.158;2023-10-31T03:56:38;9.00;99.90
14016;DHT22;7083;48.854;9.158;2023-10-31T03:59:06;9.00;99.90
14016;DHT22;7083;48.854;9.158;2023-10-31T04:01:33;9.00;99.90
14016;DHT22;7083;48.854;9.158;2023-10-31T04:03:59;9.00;99.90
14016;DHT22;7083;48.854;9.158;2023-10-31T04:06:27;9.00;99.90
14016;DHT22;7083;48.854;9.158;2023-10-31T04:08:54;9.10;99.90
14016;DHT22;7083;48.854;9.158;2023-10-31T04:11:21;9.10;99.90
14016;DHT22;7083;48.854;9.158;2023-10-31T04:13:47;9.10;99.90
14016;DHT22;7083;48.854;9.158;2023-10-31T04:16:14;9.10;99.90
14016;DHT22;7083;48.854;9.158;2023-10-31T04:18:41;9.10;99.90
14016;DHT22;7083;48.854;9.158;2023-10-31T04:21:07;9.10;99.90
14016;DHT22;7083;48.854;9.158;2023-10-31T04:23:35;9.10;99.90
14016;DHT22;7083;48.854;9.158;2023-10-31T04:26:03;9.10;99.90
14016;DHT22;7083;48.854;9.158;2023-10-31T04:28:29;9.10;99.90
14016;DHT22;7083;48.854;9.158;2023-10-31T04:30:56;9.10;99.90
14016;DHT22;7083;48.854;9.158;2023-10-31T04:33:23;9.10;99.90
14016;DHT22;7083;48.854;9.158;2023-10-31T04:35:49;9.00;99.90
14016;DHT22;7083;48.854;9.158;2023-10-31T04:38:16;9.00;99.90
14016;DHT22;7083;48.854;9.158;2023-10-31T04:40:44;8.90;99.90
14016;DHT22;7083;48.854;9.158;2023-10-31T04:43:11;8.90;99.90
14016;DHT22;7083;48.854;9.158;2023-10-31T04:45:37;8.80;99.90
14016;DHT22;7083;48.854;9.158;2023-10-31T04:48:04;8.80;99.90
14016;DHT22;7083;48.854;9.158;2023-10-31T04:50:31;8.80;99.90
14016;DHT22;7083;48.854;9.158;2023-10-31T04:52:58;9.30;99.90
14016;DHT22;7083;48.854;9.158;2023-10-31T04:55:24;8.70;99.90
14016;DHT22;7083;48.854;9.158;2023-10-31T04:57:52;8.60;99.90
14016;DHT22;7083;48.854;9.158;2023-10-31T05:00:19;8.60;99.90
14016;DHT22;7083;48.854;9.158;2023-10-31T05:02:46;8.60;99.90
14016;DHT22;7083;48.854;9.158;2023-10-31T05:05:12;8.60;99.90
14016;DHT22;7083;48.854;9.158;2023-10-31T05:07:39;8.50;99.90
14016;DHT22;7083;48.854;9.158;2023-10-31T05:10:07;8.50;99.90
14016;DHT22;7083;48.854;9.158;2023-10-31T05:12:34;8.40;99.90
14016;DHT22;7083;48.854;9.158;2023-10-31T05:15:02;8.40;99.90
14016;DHT22;7083;48.854;9.158;2023-10-31T05:17:28;8.30;99.90
14016;DHT22;7083;48.854;9.158;2023-10-31T05:19:54;8.30;99.90
14016;DHT22;7083;48.854;9.158;2023-10-31T05:22:21;8.30;99.90
14016;DHT22;7083;48.854;9.158;2023-10-31T05:24:48;8.20;99.90
14016;DHT22;7083;48.854;9.158;2023-10-31T05:27:14;8.20;99.90
14016;DHT22;7083;48.854;9.158;2023-10-31T05:29:41;8.20;99.90
14016;DHT22;7083;48.854;9.158;2023-10-31T05:32:09;8.20;99.90
14016;DHT22;7083;48.854;9.158;2023-10-31T05:34:36;8.10;99.90
14016;DHT22;7083;48.854;9.158;2023-10-31T05:37:02;8.10;99.90
14016;DHT22;7083;48.854;9.158;2023-10-31T05:39:31;8.10;99.90
14016;DHT22;7083;48.854;9.158;2023-10-31T05:41:58;8.10;99.90
14016;DHT22;7083;48.854;9.158;2023-10-31T05:44:24;8.00;99.90
14016;DHT22;7083;48.854;9.158;2023-10-31T05:46:51;8.10;99.90
14016;DHT22;7083;48.854;9.158;2023-10-31T05:49:19;8.00;99.90
14016;DHT22;7083;48.854;9.158;2023-10-31T05:51:50;8.00;99.90
14016;DHT22;7083;48.854;9.158;2023-10-31T05:54:16;8.00;99.90
14016;DHT22;7083;48.854;9.158;2023-10-31T05:56:43;8.00;99.90
14016;DHT22;7083;48.854;9.158;2023-10-31T05:59:10;7.90;99.90
14016;DHT22;7083;48.854;9.158;2023-10-31T06:01:37;7.90;99.90
14016;DHT22;7083;48.854;9.158;2023-10-31T06:04:04;7.90;99.90
14016;DHT22;7083;48.854;9.158;2023-10-31T06:06:32;7.90;99.90
14016;DHT22;7083;48.854;9.158;2023-10-31T06:08:59;7.90;99.90
14016;DHT22;7083;48.854;9.158;2023-10-31T06:11:26;7.90;99.90
14016;DHT22;7083;48.854;9.158;2023-10-31T06:13:52;8.00;99.90
14016;DHT22;7083;48.854;9.158;2023-10-31T06:16:19;8.00;99.90
14016;DHT22;7083;48.854;9.158;2023-10-31T06:18:46;8.00;99.90
14016;DHT22;7083;48.854;9.158;2023-10-31T06:21:13;8.00;99.90
14016;DHT22;7083;48.854;9.158;2023-10-31T06:23:41;8.10;99.90
14016;DHT22;7083;48.854;9.158;2023-10-31T06:26:09;8.10;99.90
14016;DHT22;7083;48.854;9.158;2023-10-31T06:28:37;8.00;99.90
14016;DHT22;7083;48.854;9.158;2023-10-31T06:31:05;8.10;99.90
14016;DHT22;7083;48.854;9.158;2023-10-31T06:33:32;8.10;99.90
14016;DHT22;7083;48.854;9.158;2023-10-31T06:35:58;8.20;99.90
14016;DHT22;7083;48.854;9.158;2023-10-31T06:38:25;8.20;99.90
14016;DHT22;7083;48.854;9.158;2023-10-31T06:40:53;8.30;99.90
14016;DHT22;7083;48.854;9.158;2023-10-31T06:43:22;8.30;99.90
14016;DHT22;7083;48.854;9.158;2023-10-31T06:45:49;8.30;99.90
14016;DHT22;7083;48.854;9.158;2023-10-31T06:48:15;8.40;99.90
14016;DHT22;7083;48.854;9.158;2023-10-31T06:50:42;8.40;99.90
14016;DHT22;7083;48.854;9.158;2023-10-31T06:53:09;8.50;99.90
14016;DHT22;7083;48.854;9.158;2023-10-31T06:55:36;8.50;99.90
14016;DHT22;7083;48.854;9.158;2023-10-31T06:58:04;8.50;99.90
14016;DHT22;7083;48.854;9.158;2023-10-31T07:00:31;8.60;99.90
14016;DHT22;7083;48.854;9.158;2023-10-31T07:02:57;8.60;99.90
14016;DHT22;7083;48.854;9.158;2023-10-31T07:05:24;8.70;99.90
14016;DHT22;7083;48.854;9.158;2023-10-31T07:07:50;8.70;99.90
14016;DHT22;7083;48.854;9.158;2023-10-31T07:10:17;8.80;99.90
14016;DHT22;7083;48.854;9.158;2023-10-31T07:12:44;8.90;99.90
14016;DHT22;7083;48.854;9.158;2023-10-31T07:15:12;8.90;99.90
14016;DHT22;7083;48.854;9.158;2023-10-31T07:17:38;8.90;99.90
14016;DHT22;7083;48.854;9.158;2023-10-31T07:20:06;8.90;99.90
14016;DHT22;7083;48.854;9.158;2023-10-31T07:22:33;9.00;99.90
14016;DHT22;7083;48.854;9.158;2023-10-31T07:25:00;10.10;99.90
14016;DHT22;7083;48.854;9.158;2023-10-31T07:27:28;9.10;99.90
14016;DHT22;7083;48.854;9.158;2023-10-31T07:29:55;9.10;99.90
14016;DHT22;7083;48.854;9.158;2023-10-31T07:32:23;9.20;99.90
14016;DHT22;7083;48.854;9.158;2023-10-31T07:34:50;9.20;99.90
14016;DHT22;7083;48.854;9.158;2023-10-31T07:37:17;9.20;99.90
14016;DHT22;7083;48.854;9.158;2023-10-31T07:39:43;9.20;99.90
14016;DHT22;7083;48.854;9.158;2023-10-31T07:42:10;9.20;99.90
14016;DHT22;7083;48.854;9.158;2023-10-31T07:44:37;9.20;99.90
14016;DHT22;7083;48.854;9.158;2023-10-31T07:47:04;9.20;99.90
14016;DHT22;7083;48.854;9.158;2023-10-31T07:49:32;9.30;99.90
14016;DHT22;7083;48.854;9.158;2023-10-31T07:51:59;9.30;99.90
14016;DHT22;7083;48.854;9.158;2023-10-31T07:54:25;9.30;99.90
14016;DHT22;7083;48.854;9.158;2023-10-31T07:56:52;9.30;99.90
14016;DHT22;7083;48.854;9.158;2023-10-31T07:59:20;9.40;99.90
14016;DHT22;7083;48.854;9.158;2023-10-31T08:01:47;8.80;99.90
14016;DHT22;7083;48.854;9.158;2023-10-31T08:04:16;9.40;99.90
14016;DHT22;7083;48.854;9.158;2023-10-31T08:06:44;9.50;99.90
14016;DHT22;7083;48.854;9.158;2023-10-31T08:09:10;9.50;99.90
14016;DHT22;7083;48.854;9.158;2023-10-31T08:11:38;9.60;99.90
14016;DHT22;7083;48.854;9.158;2023-10-31T08:14:04;9.70;99.90
14016;DHT22;7083;48.854;9.158;2023-10-31T08:16:31;9.70;99.90
14016;DHT22;7083;48.854;9.158;2023-10-31T08:18:58;9.80;99.90
14016;DHT22;7083;48.854;9.158;2023-10-31T08:21:24;9.80;99.90
14016;DHT22;7083;48.854;9.158;2023-10-31T08:23:54;9.90;99.90
14016;DHT22;7083;48.854;9.158;2023-10-31T08:26:21;9.90;99.90
14016;DHT22;7083;48.854;9.158;2023-10-31T08:28:48;9.90;99.90
14016;DHT22;7083;48.854;9.158;2023-10-31T08:31:15;9.90;99.90
14016;DHT22;7083;48.854;9.158;2023-10-31T08:33:41;10.00;99.90
14016;DHT22;7083;48.854;9.158;2023-10-31T08:36:08;10.00;99.90
14016;DHT22;7083;48.854;9.158;2023-10-31T08:38:35;10.10;99.90
14016;DHT22;7083;48.854;9.158;2023-10-31T08:41:04;10.10;99.90
14016;DHT22;7083;48.854;9.158;2023-10-31T08:43:30;10.00;99.90
14016;DHT22;7083;48.854;9.158;2023-10-31T08:45:57;10.00;99.90
14016;DHT22;7083;48.854;9.158;2023-10-31T08:48:24;10.00;99.90
14016;DHT22;7083;48.854;9.158;2023-10-31T08:50:51;10.00;99.90
14016;DHT22;7083;48.854;9.158;2023-10-31T08:53:17;10.00;99.90
14016;DHT22;7083;48.854;9.158;2023-10-31T08:55:45;10.10;99.90
14016;DHT22;7083;48.854;9.158;2023-10-31T08:58:14;10.10;99.90
14016;DHT22;7083;48.854;9.158;2023-10-31T09:00:43;10.10;99.90
14016;DHT22;7083;48.854;9.158;2023-10-31T09:03:09;10.10;99.90
14016;DHT22;7083;48.854;9.158;2023-10-31T09:05:36;10.20;99.90
14016;DHT22;7083;48.854;9.158;2023-10-31T09:08:03;10.20;99.90
14016;DHT22;7083;48.854;9.158;2023-10-31T09:10:30;10.30;99.90
14016;DHT22;7083;48.854;9.158;2023-10-31T09:12:57;10.40;99.90
14016;DHT22;7083;48.854;9.158;2023-10-31T09:15:25;10.40;99.90
14016;DHT22;7083;48.854;9.158;2023-10-31T09:17:52;10.40;99.90
14016;DHT22;7083;48.854;9.158;2023-10-31T09:20:19;10.40;99.90
14016;DHT22;7083;48.854;9.158;2023-10-31T09:22:46;10.50;99.90
14016;DHT22;7083;48.854;9.158;2023-10-31T09:25:12;10.50;99.90
14016;DHT22;7083;48.854;9.158;2023-10-31T09:27:41;10.50;99.90
14016;DHT22;7083;48.854;9.158;2023-10-31T09:30:08;10.60;99.90
14016;DHT22;7083;48.854;9.158;2023-10-31T09:32:36;10.60;99.90
14016;DHT22;7083;48.854;9.158;2023-10-31T09:35:03;10.70;99.90
14016;DHT22;7083;48.854;9.158;2023-10-31T09:37:31;10.70;99.90
14016;DHT22;7083;48.854;9.158;2023-10-31T09:39:57;10.60;99.90
14016;DHT22;7083;48.854;9.158;2023-10-31T09:42:24;10.50;99.90
14016;DHT22;7083;48.854;9.158;2023-10-31T09:44:51;10.50;99.90
14016;DHT22;7083;48.854;9.158;2023-10-31T09:47:19;10.50;99.90
14016;DHT22;7083;48.854;9.158;2023-10-31T09:49:48;10.50;99.90
14016;DHT22;7083;48.854;9.158;2023-10-31T09:52:14;10.50;99.90
14016;DHT22;7083;48.854;9.158;2023-10-31T09:54:41;10.50;99.90
14016;DHT22;7083;48.854;9.158;2023-10-31T09:57:09;10.60;99.90
14016;DHT22;7083;48.854;9.158;2023-10-31T09:59:36;10.60;99.90
14016;DHT22;7083;48.854;9.158;2023-10-31T10:02:03;10.60;99.90
14016;DHT22;7083;48.854;9.158;2023-10-31T10:04:30;10.60;99.90
14016;DHT22;7083;48.854;9.158;2023-10-31T10:07:02;10.50;99.90
14016;DHT22;7083;48.854;9.158;2023-10-31T10:09:30;10.60;99.90
14016;DHT22;7083;48.854;9.158;2023-10-31T10:11:59;10.80;99.90
14016;DHT22;7083;48.854;9.158;2023-10-31T10:14:26;10.90;99.90
14016;DHT22;7083;48.854;9.158;2023-10-31T10:16:53;10.90;99.90
14016;DHT22;7083;48.854;9.158;2023-10-31T10:19:22;10.90;99.90
14016;DHT22;7083;48.854;9.158;2023-10-31T10:21:50;10.90;99.90
14016;DHT22;7083;48.854;9.158;2023-10-31T10:24:18;11.00;99.90
14016;DHT22;7083;48.854;9.158;2023-10-31T10:26:46;11.00;99.90
14016;DHT22;7083;48.854;9.158;2023-10-31T10:29:13;11.10;99.90
14016;DHT22;7083;48.854;9.158;2023-10-31T10:31:39;11.20;99.90
14016;DHT22;7083;48.854;9.158;2023-10-31T10:34:08;11.20;99.90
14016;DHT22;7083;48.854;9.158;2023-10-31T10:36:35;11.40;99.90
14016;DHT22;7083;48.854;9.158;2023-10-31T10:39:02;11.50;99.90
14016;DHT22;7083;48.854;9.158;2023-10-31T10:41:34;11.40;99.90
14016;DHT22;7083;48.854;9.158;2023-10-31T10:44:04;11.50;99.90
14016;DHT22;7083;48.854;9.158;2023-10-31T10:46:33;11.50;99.90
14016;DHT22;7083;48.854;9.158;2023-10-31T10:49:04;11.40;99.90
14016;DHT22;7083;48.854;9.158;2023-10-31T10:51:40;11.30;99.90
14016;DHT22;7083;48.854;9.158;2023-10-31T10:54:11;11.30;99.90
14016;DHT22;7083;48.854;9.158;2023-10-31T10:56:46;11.40;99.90
14016;DHT22;7083;48.854;9.158;2023-10-31T10:59:20;11.50;99.90
14016;DHT22;7083;48.854;9.158;2023-10-31T11:01:47;11.60;99.90
14016;DHT22;7083;48.854;9.158;2023-10-31T11:04:15;11.50;99.90
14016;DHT22;7083;48.854;9.158;2023-10-31T11:06:43;11.50;99.90
14016;DHT22;7083;48.854;9.158;2023-10-31T11:09:11;11.60;99.90
14016;DHT22;7083;48.854;9.158;2023-10-31T11:11:41;11.70;99.90
14016;DHT22;7083;48.854;9.158;2023-10-31T11:14:14;11.80;99.90
14016;DHT22;7083;48.854;9.158;2023-10-31T11:16:44;12.00;99.90
14016;DHT22;7083;48.854;9.158;2023-10-31T11:19:12;12.00;99.90
14016;DHT22;7083;48.854;9.158;2023-10-31T11:21:53;12.00;99.90
14016;DHT22;7083;48.854;9.158;2023-10-31T11:24:20;11.90;99.90
14016;DHT22;7083;48.854;9.158;2023-10-31T11:26:52;11.80;99.90
14016;DHT22;7083;48.854;9.158;2023-10-31T11:29:19;11.90;99.90
14016;DHT22;7083;48.854;9.158;2023-10-31T11:31:46;11.90;99.90
14016;DHT22;7083;48.854;9.158;2023-10-31T11:34:16;12.00;99.90
14016;DHT22;7083;48.854;9.158;2023-10-31T11:36:44;11.90;99.90
14016;DHT22;7083;48.854;9.158;2023-10-31T11:39:13;12.00;99.90
14016;DHT22;7083;48.854;9.158;2023-10-31T11:41:40;12.00;99.90
14016;DHT22;7083;48.854;9.158;2023-10-31T11:44:09;12.00;99.90
14016;DHT22;7083;48.854;9.158;2023-10-31T11:46:36;12.10;99.90
14016;DHT22;7083;48.854;9.158;2023-10-31T11:49:02;12.20;99.90
14016;DHT22;7083;48.854;9.158;2023-10-31T11:51:31;12.10;99.90
14016;DHT22;7083;48.854;9.158;2023-10-31T11:53:59;12.00;99.90
14016;DHT22;7083;48.854;9.158;2023-10-31T11:56:26;11.90;99.90
14016;DHT22;7083;48.854;9.158;2023-10-31T11:59:02;12.50;99.90
14016;DHT22;7083;48.854;9.158;2023-10-31T12:01:30;11.60;99.90
14016;DHT22;7083;48.854;9.158;2023-10-31T12:03:57;11.40;99.90
14016;DHT22;7083;48.854;9.158;2023-10-31T12:06:24;11.30;99.90
14016;DHT22;7083;48.854;9.158;2023-10-31T12:08:50;11.30;99.90
14016;DHT22;7083;48.854;9.158;2023-10-31T12:11:19;11.20;99.90
14016;DHT22;7083;48.854;9.158;2023-10-31T12:13:54;11.20;99.90
14016;DHT22;7083;48.854;9.158;2023-10-31T12:16:23;11.20;99.90
14016;DHT22;7083;48.854;9.158;2023-10-31T12:18:56;11.30;99.90
14016;DHT22;7083;48.854;9.158;2023-10-31T12:21:36;11.60;99.90
14016;DHT22;7083;48.854;9.158;2023-10-31T12:24:04;11.70;99.90
14016;DHT22;7083;48.854;9.158;2023-10-31T12:26:32;11.80;99.90
14016;DHT22;7083;48.854;9.158;2023-10-31T12:29:10;11.90;99.90
14016;DHT22;7083;48.854;9.158;2023-10-31T12:31:42;12.10;99.90
14016;DHT22;7083;48.854;9.158;2023-10-31T12:34:10;12.30;99.90
14016;DHT22;7083;48.854;9.158;2023-10-31T12:36:38;12.30;99.90
14016;DHT22;7083;48.854;9.158;2023-10-31T12:39:07;12.30;99.90
14016;DHT22;7083;48.854;9.158;2023-10-31T12:41:35;12.40;99.90
14016;DHT22;7083;48.854;9.158;2023-10-31T12:44:02;12.40;99.90
14016;DHT22;7083;48.854;9.158;2023-10-31T12:46:31;12.40;99.90
14016;DHT22;7083;48.854;9.158;2023-10-31T12:48:58;12.30;99.90
14016;DHT22;7083;48.854;9.158;2023-10-31T12:51:26;12.20;99.90
14016;DHT22;7083;48.854;9.158;2023-10-31T12:53:53;12.10;99.90
14016;DHT22;7083;48.854;9.158;2023-10-31T12:56:40;12.00;99.90
14016;DHT22;7083;48.854;9.158;2023-10-31T12:59:08;11.90;99.90
14016;DHT22;7083;48.854;9.158;2023-10-31T13:01:35;11.70;99.90
14016;DHT22;7083;48.854;9.158;2023-10-31T13:04:03;11.70;99.90
14016;DHT22;7083;48.854;9.158;2023-10-31T13:06:31;11.70;99.90
14016;DHT22;7083;48.854;9.158;2023-10-31T13:08:58;11.60;99.90
14016;DHT22;7083;48.854;9.158;2023-10-31T13:11:29;11.60;99.90
14016;DHT22;7083;48.854;9.158;2023-10-31T13:13:56;11.70;99.90
14016;DHT22;7083;48.854;9.158;2023-10-31T13:16:22;11.90;99.90
14016;DHT22;7083;48.854;9.158;2023-10-31T13:18:49;12.00;99.90
14016;DHT22;7083;48.854;9.158;2023-10-31T13:21:16;12.10;99.90
14016;DHT22;7083;48.854;9.158;2023-10-31T13:23:44;12.10;99.90
14016;DHT22;7083;48.854;9.158;2023-10-31T13:26:13;12.20;99.90
14016;DHT22;7083;48.854;9.158;2023-10-31T13:28:39;12.10;99.90
14016;DHT22;7083;48.854;9.158;2023-10-31T13:31:07;12.10;99.90
14016;DHT22;7083;48.854;9.158;2023-10-31T13:33:34;12.00;99.90
14016;DHT22;7083;48.854;9.158;2023-10-31T13:36:01;12.00;99.90
14016;DHT22;7083;48.854;9.158;2023-10-31T13:38:29;11.90;99.90
14016;DHT22;7083;48.854;9.158;2023-10-31T13:40:57;11.90;99.90
14016;DHT22;7083;48.854;9.158;2023-10-31T13:43:26;11.90;99.90
14016;DHT22;7083;48.854;9.158;2023-10-31T13:45:53;11.80;99.90
14016;DHT22;7083;48.854;9.158;2023-10-31T13:48:20;11.80;99.90
14016;DHT22;7083;48.854;9.158;2023-10-31T13:50:46;11.80;99.90
14016;DHT22;7083;48.854;9.158;2023-10-31T13:53:13;11.90;99.90
14016;DHT22;7083;48.854;9.158;2023-10-31T13:55:41;11.90;99.90
14016;DHT22;7083;48.854;9.158;2023-10-31T13:58:09;11.80;99.90
14016;DHT22;7083;48.854;9.158;2023-10-31T14:00:35;11.80;99.90
14016;DHT22;7083;48.854;9.158;2023-10-31T14:03:02;11.80;99.90
14016;DHT22;7083;48.854;9.158;2023-10-31T14:05:29;11.80;99.90
14016;DHT22;7083;48.854;9.158;2023-10-31T14:07:56;11.80;99.90
14016;DHT22;7083;48.854;9.158;2023-10-31T14:10:23;11.90;99.90
14016;DHT22;7083;48.854;9.158;2023-10-31T14:12:51;11.90;99.90
14016;DHT22;7083;48.854;9.158;2023-10-31T14:15:19;12.00;99.90
14016;DHT22;7083;48.854;9.158;2023-10-31T14:17:47;12.10;99.90
14016;DHT22;7083;48.854;9.158;2023-10-31T14:20:14;12.20;99.90
14016;DHT22;7083;48.854;9.158;2023-10-31T14:22:47;12.20;99.90
14016;DHT22;7083;48.854;9.158;2023-10-31T14:25:14;12.20;99.90
14016;DHT22;7083;48.854;9.158;2023-10-31T14:27:41;12.30;99.90
14016;DHT22;7083;48.854;9.158;2023-10-31T14:30:08;12.30;99.90
14016;DHT22;7083;48.854;9.158;2023-10-31T14:32:36;12.20;99.90
14016;DHT22;7083;48.854;9.158;2023-10-31T14:35:04;12.10;99.90
14016;DHT22;7083;48.854;9.158;2023-10-31T14:37:32;12.20;99.90
14016;DHT22;7083;48.854;9.158;2023-10-31T14:39:58;12.10;99.90
14016;DHT22;7083;48.854;9.158;2023-10-31T14:42:25;12.10;99.90
14016;DHT22;7083;48.854;9.158;2023-10-31T14:44:52;12.10;99.90
14016;DHT22;7083;48.854;9.158;2023-10-31T14:47:22;12.00;99.90
14016;DHT22;7083;48.854;9.158;2023-10-31T14:49:50;11.90;99.90
14016;DHT22;7083;48.854;9.158;2023-10-31T14:52:16;11.80;99.90
14016;DHT22;7083;48.854;9.158;2023-10-31T14:54:43;11.80;99.90
14016;DHT22;7083;48.854;9.158;2023-10-31T14:57:10;11.80;99.90
14016;DHT22;7083;48.854;9.158;2023-10-31T14:59:36;11.70;99.90
14016;DHT22;7083;48.854;9.158;2023-10-31T15:02:03;11.70;99.90
14016;DHT22;7083;48.854;9.158;2023-10-31T15:04:30;11.70;99.90
14016;DHT22;7083;48.854;9.158;2023-10-31T15:06:58;11.60;99.90
14016;DHT22;7083;48.854;9.158;2023-10-31T15:09:25;11.70;99.90
14016;DHT22;7083;48.854;9.158;2023-10-31T15:11:52;11.60;99.90
14016;DHT22;7083;48.854;9.158;2023-10-31T15:14:19;11.60;99.90
14016;DHT22;7083;48.854;9.158;2023-10-31T15:16:45;11.50;99.90
14016;DHT22;7083;48.854;9.158;2023-10-31T15:19:12;11.50;99.90
14016;DHT22;7083;48.854;9.158;2023-10-31T15:21:39;11.40;99.90
14016;DHT22;7083;48.854;9.158;2023-10-31T15:24:07;11.30;99.90
14016;DHT22;7083;48.854;9.158;2023-10-31T15:26:36;11.10;99.90
14016;DHT22;7083;48.854;9.158;2023-10-31T15:29:04;11.00;99.90
14016;DHT22;7083;48.854;9.158;2023-10-31T15:31:31;10.90;99.90
14016;DHT22;7083;48.854;9.158;2023-10-31T15:33:58;10.80;99.90
14016;DHT22;7083;48.854;9.158;2023-10-31T15:36:25;10.80;99.90
14016;DHT22;7083;48.854;9.158;2023-10-31T15:38:52;10.70;99.90
14016;DHT22;7083;48.854;9.158;2023-10-31T15:41:20;10.70;99.90
14016;DHT22;7083;48.854;9.158;2023-10-31T15:43:48;10.70;99.90
14016;DHT22;7083;48.854;9.158;2023-10-31T15:46:15;10.70;99.90
14016;DHT22;7083;48.854;9.158;2023-10-31T15:48:42;10.60;99.90
14016;DHT22;7083;48.854;9.158;2023-10-31T15:51:08;10.60;99.90
14016;DHT22;7083;48.854;9.158;2023-10-31T15:53:35;10.60;99.90